Time;durP1;ratioP1;P1;durP2;ratioP2;P2;SDS_P1;SDS_P2;PMS_P1;PMS_P2;Temp;Humidity;BMP_temperature;BMP_pressure;BME280_temperature;BME280_humidity;BME280_pressure;Samples;Min_cycle;Max_cycle;Signal;HPM_P1;HPM_P2
2021/06/08 00:01:41;;;;;;;8.88;7.97;;;;;;;17.13;88.84;100977.34;5052745;28;20183;-78
2021/06/08 00:04:06;;;;;;;9.43;8.43;;;;;;;17.12;88.41;100977.56;5052633;28;20033;-77
2021/06/08 00:06:32;;;;;;;10.40;9.20;;;;;;;17.09;88.22;100978.75;5051437;28;20036;-78
2021/06/08 00:08:57;;;;;;;10.05;9.05;;;;;;;17.05;88.97;100972.13;5052953;28;20029;-77
2021/06/08 00:11:22;;;;;;;12.10;10.90;;;;;;;17.00;88.84;100971.03;5052352;28;20059;-77
2021/06/08 00:13:49;;;;;;;11.20;10.00;;;;;;;16.97;89.03;100973.03;5051020;28;20029;-77
2021/06/08 00:16:14;;;;;;;10.40;9.30;;;;;;;16.98;88.57;100963.19;5051462;28;20033;-77
2021/06/08 00:18:40;;;;;;;11.57;9.13;;;;;;;16.93;88.75;100966.38;5054089;28;20043;-77
2021/06/08 00:21:05;;;;;;;9.07;8.18;;;;;;;16.91;89.13;100964.91;5071995;28;20033;-77
2021/06/08 00:23:30;;;;;;;8.57;7.68;;;;;;;16.86;89.13;100962.78;5072506;28;20040;-77
2021/06/08 00:25:56;;;;;;;8.60;7.60;;;;;;;16.80;89.25;100960.00;5071964;28;20024;-77
2021/06/08 00:28:21;;;;;;;7.07;6.38;;;;;;;16.79;88.81;100955.69;5071878;28;20037;-77
2021/06/08 00:30:47;;;;;;;5.20;4.65;;;;;;;16.77;88.92;100967.34;5072042;28;20112;-77
2021/06/08 00:33:12;;;;;;;6.60;5.90;;;;;;;16.75;88.89;100965.88;5071913;28;20079;-77
2021/06/08 00:35:37;;;;;;;6.20;5.60;;;;;;;16.70;88.76;100963.75;5071863;28;20511;-77
2021/06/08 00:38:03;;;;;;;7.50;6.70;;;;;;;16.63;89.66;100970.81;5072417;28;20048;-77
2021/06/08 00:40:28;;;;;;;9.27;8.38;;;;;;;16.58;89.32;100970.53;5069993;28;20039;-77
2021/06/08 00:42:55;;;;;;;8.02;7.22;;;;;;;16.50;89.91;100970.63;5076420;28;20032;-77
2021/06/08 00:45:21;;;;;;;9.40;8.40;;;;;;;16.44;90.01;100971.31;5083340;28;20020;-77
2021/06/08 00:47:46;;;;;;;9.95;8.50;;;;;;;16.39;89.77;100957.69;5081038;28;20048;-77
2021/06/08 00:50:12;;;;;;;8.90;8.00;;;;;;;16.38;89.65;100966.72;5070765;28;20040;-77
2021/06/08 00:52:38;;;;;;;8.57;7.68;;;;;;;16.34;89.78;100964.38;5071283;28;20067;-77
2021/06/08 00:55:04;;;;;;;8.68;7.78;;;;;;;16.33;90.14;100964.56;5070372;28;20261;-77
2021/06/08 00:57:29;;;;;;;11.90;10.68;;;;;;;16.32;89.90;100958.38;5071500;28;20490;-77
2021/06/08 00:59:54;;;;;;;9.55;8.65;;;;;;;16.28;90.42;100966.91;5071311;28;20029;-77
2021/06/08 01:02:20;;;;;;;8.70;7.72;;;;;;;16.30;90.47;100967.59;5070697;28;20040;-77
2021/06/08 01:04:45;;;;;;;9.70;8.55;;;;;;;16.31;90.60;100961.25;5071193;28;20472;-77
2021/06/08 01:07:10;;;;;;;12.27;11.07;;;;;;;16.33;90.46;100965.41;5071511;28;20062;-78
2021/06/08 01:09:36;;;;;;;15.15;13.55;;;;;;;16.32;90.78;100963.72;5070775;28;20155;-77
2021/06/08 01:12:01;;;;;;;14.13;11.93;;;;;;;16.39;90.31;100958.50;5069644;28;20032;-78
2021/06/08 01:14:26;;;;;;;12.68;11.38;;;;;;;16.42;90.43;100955.50;5071350;28;20150;-77
2021/06/08 01:16:53;;;;;;;14.48;12.45;;;;;;;16.43;90.27;100954.47;5071177;28;20025;-78
2021/06/08 01:19:19;;;;;;;13.73;12.32;;;;;;;16.46;90.01;100955.94;5071813;28;20634;-77
2021/06/08 01:21:45;;;;;;;11.98;10.77;;;;;;;16.49;89.81;100953.78;5071888;28;20064;-77
2021/06/08 01:24:11;;;;;;;13.05;11.43;;;;;;;16.51;89.61;100953.56;5069873;28;20029;-77
2021/06/08 01:26:37;;;;;;;15.15;12.57;;;;;;;16.53;89.50;100959.56;5071629;28;20052;-77
2021/06/08 01:29:04;;;;;;;13.20;11.48;;;;;;;16.55;89.67;100953.03;5071660;28;20036;-77
2021/06/08 01:31:33;;;;;;;13.48;11.60;;;;;;;16.54;90.11;100961.22;5071740;28;20442;-77
2021/06/08 01:33:58;;;;;;;12.52;10.77;;;;;;;16.60;89.47;100962.34;5071089;28;20135;-77
2021/06/08 01:36:27;;;;;;;14.00;12.50;;;;;;;16.60;88.74;100955.16;5069498;28;20039;-78
2021/06/08 01:38:53;;;;;;;12.73;11.38;;;;;;;16.65;88.75;100962.63;5071328;28;20026;-77
2021/06/08 01:41:24;;;;;;;13.30;11.75;;;;;;;16.67;88.77;100966.78;5069391;28;20032;-78
2021/06/08 01:43:51;;;;;;;13.38;10.90;;;;;;;16.67;88.42;100965.97;5078747;28;20116;-77
2021/06/08 01:46:18;;;;;;;12.75;11.30;;;;;;;16.70;88.25;100970.94;5084815;28;20024;-77
2021/06/08 01:48:43;;;;;;;14.00;11.55;;;;;;;16.65;88.52;100963.47;5072538;28;20050;-77
2021/06/08 01:51:20;;;;;;;11.88;10.63;;;;;;;16.66;88.56;100966.94;5070719;28;20028;-77
2021/06/08 01:53:56;;;;;;;13.05;10.95;;;;;;;16.63;88.98;100965.47;5070824;28;20033;-77
2021/06/08 01:56:23;;;;;;;9.57;8.65;;;;;;;16.61;88.67;100966.66;5069279;28;20044;-77
2021/06/08 01:59:17;;;;;;;10.77;9.35;;;;;;;16.61;88.98;100955.97;5070371;28;20033;-77
2021/06/08 02:01:55;;;;;;;9.98;8.98;;;;;;;16.60;88.60;100960.50;5070560;28;20409;-77
2021/06/08 02:04:33;;;;;;;13.02;11.63;;;;;;;16.60;88.73;100957.84;5069527;28;20108;-77
2021/06/08 02:07:02;;;;;;;12.57;10.68;;;;;;;16.59;88.43;100966.88;5069234;28;20187;-77
2021/06/08 02:10:09;;;;;;;9.23;8.25;;;;;;;16.60;88.36;100973.03;5070148;28;20412;-77
2021/06/08 02:12:34;;;;;;;8.65;7.70;;;;;;;16.58;88.90;100973.19;5010693;28;20441;-77
2021/06/08 02:15:11;;;;;;;9.02;8.13;;;;;;;16.51;89.15;100966.91;5056099;28;20025;-77
2021/06/08 02:17:36;;;;;;;7.20;5.95;;;;;;;16.47;89.15;100973.63;5070447;28;20181;-77
2021/06/08 02:20:08;;;;;;;7.88;6.88;;;;;;;16.42;89.38;100968.00;5056872;28;20128;-77
2021/06/08 02:22:38;;;;;;;10.35;8.68;;;;;;;16.37;89.55;100971.19;5070252;28;20024;-77
2021/06/08 02:25:04;;;;;;;9.18;8.23;;;;;;;16.34;89.52;100966.22;5069764;28;20037;-77
2021/06/08 02:27:31;;;;;;;9.80;8.80;;;;;;;16.31;89.87;100972.75;5069688;28;20040;-77
2021/06/08 02:29:57;;;;;;;11.07;9.63;;;;;;;16.30;90.02;100976.44;5070707;28;20037;-77
2021/06/08 02:32:23;;;;;;;7.63;6.80;;;;;;;16.34;89.86;100976.91;5068275;28;20121;-77
2021/06/08 02:34:50;;;;;;;8.02;7.22;;;;;;;16.32;89.65;100971.72;5056547;28;20138;-77
2021/06/08 02:37:18;;;;;;;8.52;7.63;;;;;;;16.33;89.68;100970.75;5070120;28;20028;-77
2021/06/08 02:39:45;;;;;;;8.55;7.65;;;;;;;16.31;89.80;100971.94;5069164;28;20029;-77
2021/06/08 02:42:12;;;;;;;9.95;8.90;;;;;;;16.28;90.01;100973.13;5069386;28;20189;-77
2021/06/08 02:44:41;;;;;;;8.95;7.50;;;;;;;16.28;89.98;100981.13;5070293;28;20028;-77
2021/06/08 02:47:06;;;;;;;8.88;7.97;;;;;;;16.25;90.02;100976.13;5070189;28;20040;-77
2021/06/08 02:49:32;;;;;;;9.75;8.75;;;;;;;16.21;89.96;100982.84;5070068;28;20033;-77
2021/06/08 02:52:00;;;;;;;8.98;8.07;;;;;;;16.20;90.27;100985.69;5070457;28;20040;-78
2021/06/08 02:54:26;;;;;;;10.50;9.23;;;;;;;16.21;90.21;100980.16;5069448;28;20041;-77
2021/06/08 02:56:53;;;;;;;9.73;8.20;;;;;;;16.25;90.29;100983.31;5070042;28;20031;-77
2021/06/08 02:59:18;;;;;;;11.88;10.10;;;;;;;16.25;89.66;100984.13;5069677;28;20028;-77
2021/06/08 03:01:50;;;;;;;10.20;9.18;;;;;;;16.28;89.72;100980.28;5069314;28;20129;-77
2021/06/08 03:04:19;;;;;;;13.32;11.35;;;;;;;16.29;89.53;100977.44;5069259;28;20039;-77
2021/06/08 03:06:52;;;;;;;14.35;11.75;;;;;;;16.23;89.03;100980.81;5069894;28;20036;-77
2021/06/08 03:09:27;;;;;;;12.68;11.18;;;;;;;16.25;89.77;100984.13;5074114;28;20421;-77
2021/06/08 03:11:55;;;;;;;10.05;8.93;;;;;;;16.30;90.13;100986.25;5072386;28;20039;-77
2021/06/08 03:14:20;;;;;;;12.15;10.95;;;;;;;16.27;89.32;100981.28;5073136;28;20252;-77
2021/06/08 03:16:52;;;;;;;14.32;12.15;;;;;;;16.26;89.70;100988.47;5074266;28;20290;-77
2021/06/08 03:19:21;;;;;;;13.80;10.50;;;;;;;16.30;90.30;100992.44;5072208;28;20056;-77
2021/06/08 03:21:50;;;;;;;9.23;8.32;;;;;;;16.32;90.25;100989.59;5077268;28;20028;-77
2021/06/08 03:24:18;;;;;;;9.30;7.85;;;;;;;16.29;89.82;100993.44;5093462;28;20044;-77
2021/06/08 03:26:45;;;;;;;6.80;6.10;;;;;;;16.29;90.25;100989.94;5093816;28;20028;-77
2021/06/08 03:29:14;;;;;;;10.02;9.00;;;;;;;16.25;89.57;100988.63;5093761;28;20032;-77
2021/06/08 03:31:41;;;;;;;9.93;8.93;;;;;;;16.21;90.07;100985.50;5093138;28;20040;-77
2021/06/08 03:34:14;;;;;;;9.70;8.70;;;;;;;16.20;90.19;100983.84;5078571;28;20272;-77
2021/06/08 03:36:41;;;;;;;9.82;8.82;;;;;;;16.23;91.20;100988.84;5073443;28;20582;-77
2021/06/08 03:39:06;;;;;;;7.65;6.82;;;;;;;16.25;91.01;100985.97;5073467;28;20539;-77
2021/06/08 03:41:32;;;;;;;6.18;5.57;;;;;;;16.28;91.29;100986.47;5072885;28;20037;-77
2021/06/08 03:43:58;;;;;;;5.70;5.10;;;;;;;16.30;91.35;100983.59;5071575;28;20541;-77
2021/06/08 03:46:27;;;;;;;6.43;5.82;;;;;;;16.31;90.88;100986.09;5071045;28;20031;-77
2021/06/08 03:48:56;;;;;;;6.63;5.93;;;;;;;16.31;91.21;100994.09;5072080;28;20033;-77
2021/06/08 03:51:26;;;;;;;5.70;5.20;;;;;;;16.32;91.51;100993.06;5071330;28;20033;-77
2021/06/08 03:53:52;;;;;;;5.87;5.27;;;;;;;16.31;90.94;101002.09;5072823;28;20029;-77
2021/06/08 03:56:17;;;;;;;8.27;7.43;;;;;;;16.28;90.73;100998.94;5072240;28;20412;-77
2021/06/08 03:58:43;;;;;;;11.50;10.30;;;;;;;16.23;90.27;101002.19;5073157;28;20029;-77
2021/06/08 04:01:09;;;;;;;13.30;11.90;;;;;;;16.26;90.79;101006.31;5072204;28;20452;-77
2021/06/08 04:03:35;;;;;;;10.63;9.52;;;;;;;16.24;90.77;101003.81;5072638;28;20072;-77
2021/06/08 04:06:03;;;;;;;11.07;9.98;;;;;;;16.24;90.99;101019.84;5070775;28;20056;-77
2021/06/08 04:08:29;;;;;;;8.68;7.78;;;;;;;16.28;91.49;101009.63;5070804;28;20058;-77
2021/06/08 04:10:55;;;;;;;7.40;6.70;;;;;;;16.33;91.21;101015.28;5071137;28;20040;-77
2021/06/08 04:13:21;;;;;;;6.20;5.57;;;;;;;16.36;91.38;101020.25;5072548;28;20033;-77
2021/06/08 04:15:49;;;;;;;5.75;5.15;;;;;;;16.39;90.93;101016.41;5072496;28;20021;-77
2021/06/08 04:18:15;;;;;;;8.38;7.57;;;;;;;16.40;91.27;101008.22;5072068;28;20122;-77
2021/06/08 04:20:40;;;;;;;9.02;7.57;;;;;;;16.43;90.59;101012.38;5072152;28;20489;-77
2021/06/08 04:23:07;;;;;;;7.82;7.03;;;;;;;16.48;91.04;101007.31;5072493;28;20032;-77
2021/06/08 04:25:33;;;;;;;6.15;5.55;;;;;;;16.52;90.93;101000.63;5072517;28;20032;-77
2021/06/08 04:27:58;;;;;;;6.38;5.50;;;;;;;16.54;90.81;101002.09;5073033;28;20035;-77
2021/06/08 04:30:24;;;;;;;11.10;9.50;;;;;;;16.53;89.96;101004.94;5072269;28;20036;-77
2021/06/08 04:32:49;;;;;;;11.05;9.75;;;;;;;16.55;89.31;101000.25;5072968;28;20111;-77
2021/06/08 04:35:16;;;;;;;15.43;12.88;;;;;;;16.56;89.64;101002.75;5072843;28;20374;-77
2021/06/08 04:37:42;;;;;;;13.98;12.43;;;;;;;16.58;89.68;101004.41;5078687;28;20032;-76
2021/06/08 04:40:10;;;;;;;15.23;13.63;;;;;;;16.56;88.98;101005.44;5072789;28;20044;-77
2021/06/08 04:42:37;;;;;;;13.18;11.50;;;;;;;16.59;89.40;101001.56;5072391;28;20032;-77
2021/06/08 04:45:04;;;;;;;13.45;11.65;;;;;;;16.65;89.57;101005.34;5076187;28;20029;-78
2021/06/08 04:47:29;;;;;;;14.32;12.88;;;;;;;16.58;88.28;101015.09;5071706;28;20404;-77
2021/06/08 04:49:55;;;;;;;15.23;13.63;;;;;;;16.57;88.44;101016.94;5072068;28;20092;-77
2021/06/08 04:52:20;;;;;;;16.55;12.23;;;;;;;16.62;89.07;101022.56;5071644;28;20067;-77
2021/06/08 04:54:46;;;;;;;12.27;10.98;;;;;;;16.61;88.67;101028.91;5068919;28;20029;-77
2021/06/08 04:57:13;;;;;;;14.90;12.50;;;;;;;16.59;88.49;101025.59;5051738;28;20116;-77
2021/06/08 04:59:49;;;;;;;15.60;13.55;;;;;;;16.56;88.40;101020.59;5051406;28;20029;-77
2021/06/08 05:02:25;;;;;;;12.00;10.70;;;;;;;16.62;88.91;101022.56;5051139;28;20044;-77
2021/06/08 05:04:53;;;;;;;14.60;12.82;;;;;;;16.65;88.71;101021.38;5051524;28;20036;-77
2021/06/08 05:07:21;;;;;;;14.27;12.77;;;;;;;16.68;88.50;101027.16;5051716;28;20214;-78
2021/06/08 05:09:49;;;;;;;12.35;11.05;;;;;;;16.75;88.37;101029.97;5051088;28;20029;-77
2021/06/08 05:12:18;;;;;;;12.68;11.38;;;;;;;16.77;88.48;101030.63;5049957;28;20489;-77
2021/06/08 05:14:48;;;;;;;12.75;11.35;;;;;;;16.81;88.59;101034.63;5051526;28;20049;-76
2021/06/08 05:17:17;;;;;;;9.80;8.73;;;;;;;16.83;88.99;101032.59;5051569;28;20033;-77
2021/06/08 05:19:43;;;;;;;9.82;8.82;;;;;;;16.90;89.18;101027.34;5061189;28;20029;-75
2021/06/08 05:22:10;;;;;;;6.78;6.07;;;;;;;16.92;88.78;101038.69;5086616;28;20509;-77
2021/06/08 05:24:35;;;;;;;6.07;5.47;;;;;;;16.95;88.67;101035.69;5071141;28;20400;-77
2021/06/08 05:27:02;;;;;;;7.18;6.45;;;;;;;17.00;88.93;101040.47;5071373;28;20115;-77
2021/06/08 05:29:27;;;;;;;8.82;7.93;;;;;;;17.01;88.52;101040.28;5070862;28;20052;-77
2021/06/08 05:31:58;;;;;;;8.80;7.90;;;;;;;17.05;88.97;101038.91;5070403;28;20064;-77
2021/06/08 05:34:25;;;;;;;11.75;10.43;;;;;;;17.05;88.34;101043.44;5070297;28;20087;-77
2021/06/08 05:36:50;;;;;;;12.15;9.73;;;;;;;17.07;88.66;101044.91;5070689;28;20027;-76
2021/06/08 05:39:16;;;;;;;11.98;10.57;;;;;;;17.07;87.41;101044.09;5070884;28;20029;-77
2021/06/08 05:41:41;;;;;;;12.13;10.50;;;;;;;17.10;87.77;101043.72;5070658;28;20317;-76
2021/06/08 05:44:10;;;;;;;9.52;8.52;;;;;;;17.12;87.76;101045.19;5078635;28;20393;-76
2021/06/08 05:46:37;;;;;;;9.85;8.85;;;;;;;17.16;87.60;101038.47;5089084;28;20031;-76
2021/06/08 05:49:08;;;;;;;11.40;10.10;;;;;;;17.25;87.98;101046.41;5091053;28;20036;-77
2021/06/08 05:51:35;;;;;;;12.43;11.13;;;;;;;17.19;86.13;101051.47;5090716;28;20469;-76
2021/06/08 05:54:04;;;;;;;10.77;9.60;;;;;;;17.32;87.55;101050.00;5090760;28;20039;-77
2021/06/08 05:56:32;;;;;;;9.82;8.82;;;;;;;17.41;87.43;101048.91;5072718;28;20486;-77
2021/06/08 05:58:58;;;;;;;10.45;9.45;;;;;;;17.39;85.45;101046.41;5070566;28;20067;-77
2021/06/08 06:01:26;;;;;;;10.95;9.85;;;;;;;17.48;86.85;101052.50;5070218;28;20060;-77
2021/06/08 06:03:52;;;;;;;9.93;7.93;;;;;;;17.55;86.91;101045.41;5070507;28;20404;-79
2021/06/08 06:06:17;;;;;;;12.05;10.68;;;;;;;17.57;85.18;101051.41;5068331;28;20028;-76
2021/06/08 06:08:42;;;;;;;11.70;10.45;;;;;;;17.64;86.54;101048.81;5070677;28;20069;-77
2021/06/08 06:11:10;;;;;;;14.13;11.90;;;;;;;17.59;85.28;101046.69;5070385;28;20074;-78
2021/06/08 06:13:53;;;;;;;11.48;10.00;;;;;;;17.70;85.41;101039.22;5070118;28;20028;-77
2021/06/08 06:16:21;;;;;;;13.05;9.82;;;;;;;17.81;85.74;101044.13;5070090;28;20028;-77
2021/06/08 06:18:47;;;;;;;11.55;10.35;;;;;;;17.87;85.18;101038.00;5070482;28;20033;-77
2021/06/08 06:21:15;;;;;;;14.25;11.32;;;;;;;17.92;84.25;101042.81;5070330;28;20036;-77
2021/06/08 06:23:40;;;;;;;10.90;9.80;;;;;;;17.95;84.38;101040.59;5069149;28;20051;-77
2021/06/08 06:26:06;;;;;;;14.40;11.30;;;;;;;17.98;84.87;101042.88;5068420;28;20028;-77
2021/06/08 06:28:33;;;;;;;12.43;10.60;;;;;;;18.11;84.09;101039.53;5070140;28;20511;-77
2021/06/08 06:30:59;;;;;;;9.10;8.20;;;;;;;18.24;84.06;101044.22;5070117;28;20039;-76
2021/06/08 06:33:24;;;;;;;8.48;7.57;;;;;;;18.36;83.21;101049.91;5070089;28;20033;-77
2021/06/08 06:35:50;;;;;;;11.90;10.60;;;;;;;18.36;82.59;101050.72;5070246;28;20029;-76
2021/06/08 06:38:17;;;;;;;12.15;10.02;;;;;;;18.41;83.87;101050.97;5068527;28;20029;-77
2021/06/08 06:40:44;;;;;;;11.20;10.10;;;;;;;18.49;82.01;101050.00;5070189;28;20047;-77
2021/06/08 06:43:15;;;;;;;11.98;10.48;;;;;;;18.59;82.67;101057.72;5074244;28;20104;-77
2021/06/08 06:45:41;;;;;;;9.75;8.68;;;;;;;18.71;81.48;101053.53;5074271;28;20024;-76
2021/06/08 06:48:12;;;;;;;11.25;8.98;;;;;;;18.81;82.26;101043.34;5073346;28;20037;-77
2021/06/08 06:50:39;;;;;;;10.43;9.32;;;;;;;18.80;80.41;101062.28;5073641;28;20378;-76
2021/06/08 06:53:05;;;;;;;12.32;10.32;;;;;;;18.93;81.57;101056.22;5074080;28;20116;-76
2021/06/08 06:55:32;;;;;;;11.27;8.40;;;;;;;19.03;81.25;101059.41;5074077;28;20029;-77
2021/06/08 06:57:58;;;;;;;11.95;10.02;;;;;;;19.13;81.02;101065.22;5072737;28;20386;-77
2021/06/08 07:00:25;;;;;;;10.95;9.80;;;;;;;19.21;79.27;101058.88;5072628;28;20048;-77
2021/06/08 07:02:54;;;;;;;10.63;9.38;;;;;;;19.27;80.02;101050.91;5072955;28;20029;-77
2021/06/08 07:05:25;;;;;;;10.35;9.05;;;;;;;19.38;79.58;101054.91;5073615;28;20048;-77
2021/06/08 07:07:52;;;;;;;10.65;9.30;;;;;;;19.36;79.13;101058.81;5070780;28;20210;-76
2021/06/08 07:10:22;;;;;;;11.27;9.40;;;;;;;19.54;78.89;101059.09;5073576;28;20041;-77
2021/06/08 07:12:48;;;;;;;11.32;9.55;;;;;;;19.69;78.88;101057.16;5073554;28;20033;-77
2021/06/08 07:15:15;;;;;;;9.13;7.68;;;;;;;19.82;78.28;101060.94;5073706;28;20024;-77
2021/06/08 07:17:41;;;;;;;9.95;8.88;;;;;;;19.96;77.24;101061.81;5074275;28;20033;-77
2021/06/08 07:20:09;;;;;;;9.02;8.13;;;;;;;19.99;77.27;101064.91;5079715;28;20063;-77
2021/06/08 07:22:36;;;;;;;9.40;7.78;;;;;;;20.17;76.64;101060.88;5085325;28;20165;-77
2021/06/08 07:25:04;;;;;;;9.57;8.32;;;;;;;20.30;75.54;101063.56;5093316;28;20520;-77
2021/06/08 07:27:30;;;;;;;11.32;8.77;;;;;;;20.39;75.14;101059.69;5092434;28;20119;-77
2021/06/08 07:29:56;;;;;;;10.63;9.35;;;;;;;20.45;76.28;101058.88;5093712;28;20059;-77
2021/06/08 07:32:26;;;;;;;10.38;8.52;;;;;;;20.50;76.32;101066.31;5092086;28;20423;-77
2021/06/08 07:35:12;;;;;;;9.15;8.23;;;;;;;20.60;74.06;101060.59;5073436;28;20159;-76
2021/06/08 07:37:42;;;;;;;9.05;8.05;;;;;;;20.73;73.87;101060.56;5073517;28;20032;-77
2021/06/08 07:40:12;;;;;;;10.07;8.75;;;;;;;20.83;74.40;101063.69;5071092;28;20489;-76
2021/06/08 07:42:41;;;;;;;10.55;9.13;;;;;;;20.83;74.39;101060.16;5071511;28;20501;-77
2021/06/08 07:45:14;;;;;;;10.05;8.43;;;;;;;20.79;74.39;101060.59;5072907;28;20055;-77
2021/06/08 07:47:42;;;;;;;10.55;8.98;;;;;;;20.83;73.89;101066.38;5073202;28;20033;-77
2021/06/08 07:50:09;;;;;;;9.40;8.45;;;;;;;20.90;74.27;101059.13;5073042;28;20318;-76
2021/06/08 07:52:36;;;;;;;9.40;8.43;;;;;;;20.81;72.99;101062.22;5071975;28;20024;-77
2021/06/08 07:55:03;;;;;;;9.88;8.88;;;;;;;20.87;73.06;101059.56;5073128;28;20508;-76
2021/06/08 07:57:28;;;;;;;9.27;8.10;;;;;;;20.87;75.00;101064.94;5072848;28;20054;-77
2021/06/08 07:59:54;;;;;;;10.90;9.07;;;;;;;20.95;71.86;101062.03;5073127;28;20037;-76
2021/06/08 08:02:21;;;;;;;9.52;8.07;;;;;;;21.08;72.39;101057.69;5070672;28;20441;-77
2021/06/08 08:04:50;;;;;;;9.15;8.23;;;;;;;21.28;73.11;101061.16;5073220;28;20037;-77
2021/06/08 08:07:26;;;;;;;9.95;8.73;;;;;;;21.38;71.55;101058.91;5072669;28;20041;-76
2021/06/08 08:09:55;;;;;;;9.90;8.90;;;;;;;21.46;71.19;101059.75;5072643;28;20531;-77
2021/06/08 08:12:22;;;;;;;9.10;8.20;;;;;;;21.68;71.16;101052.22;5072104;28;20535;-77
2021/06/08 08:14:50;;;;;;;10.50;8.95;;;;;;;21.73;69.92;101057.78;5072725;28;20458;-77
2021/06/08 08:17:15;;;;;;;8.73;7.70;;;;;;;21.77;70.31;101062.53;5073018;28;20489;-77
2021/06/08 08:19:42;;;;;;;8.50;7.60;;;;;;;21.85;70.79;101059.59;5072111;28;20033;-78
2021/06/08 08:22:08;;;;;;;9.50;8.50;;;;;;;21.78;69.43;101061.47;5071730;28;20451;-77
2021/06/08 08:24:34;;;;;;;10.35;7.97;;;;;;;21.82;70.28;101053.81;5072519;28;20274;-77
2021/06/08 08:27:03;;;;;;;9.32;7.95;;;;;;;21.84;69.16;101060.63;5072245;28;20088;-77
2021/06/08 08:29:28;;;;;;;9.27;7.97;;;;;;;21.94;69.40;101062.06;5072522;28;20509;-76
2021/06/08 08:31:53;;;;;;;9.48;8.45;;;;;;;22.08;69.03;101052.06;5071986;28;20124;-76
2021/06/08 08:34:19;;;;;;;9.50;8.43;;;;;;;21.93;70.08;101058.53;5071909;28;20029;-77
2021/06/08 08:36:44;;;;;;;7.55;6.85;;;;;;;22.14;71.40;101056.56;5071964;28;20028;-77
2021/06/08 08:39:11;;;;;;;7.60;6.80;;;;;;;22.34;69.60;101060.00;5072000;28;20083;-76
2021/06/08 08:41:37;;;;;;;9.18;8.27;;;;;;;22.51;69.31;101060.31;5071310;28;20024;-76
2021/06/08 08:44:03;;;;;;;11.02;9.00;;;;;;;22.25;68.23;101056.75;5080070;28;20025;-77
2021/06/08 08:46:29;;;;;;;9.90;8.70;;;;;;;22.37;68.59;101056.06;5090375;28;20028;-76
2021/06/08 08:48:57;;;;;;;12.18;10.20;;;;;;;22.19;68.58;101052.19;5052130;28;20037;-76
2021/06/08 08:51:24;;;;;;;10.13;8.50;;;;;;;22.27;68.66;101053.84;5052085;28;20029;-76
2021/06/08 08:53:53;;;;;;;8.73;7.22;;;;;;;22.56;69.28;101049.72;5051856;28;20265;-77
2021/06/08 08:56:20;;;;;;;12.00;8.55;;;;;;;22.65;67.90;101045.69;5067259;28;20040;-77
2021/06/08 08:58:46;;;;;;;10.20;8.65;;;;;;;22.79;65.57;101045.59;5072164;28;20033;-77
2021/06/08 09:01:11;;;;;;;9.40;7.30;;;;;;;22.92;67.57;101048.19;5070637;28;20033;-77
2021/06/08 09:03:38;;;;;;;9.40;7.40;;;;;;;23.06;66.26;101048.91;5071881;28;20036;-77
2021/06/08 09:06:04;;;;;;;9.30;7.68;;;;;;;23.09;65.03;101041.19;5070563;28;20028;-77
2021/06/08 09:08:30;;;;;;;11.52;8.00;;;;;;;23.16;67.48;101048.41;5071103;28;20399;-77
2021/06/08 09:10:58;;;;;;;8.43;7.43;;;;;;;23.26;65.63;101040.63;5071756;28;20028;-76
2021/06/08 09:13:23;;;;;;;9.27;7.95;;;;;;;23.08;65.27;101041.44;5072616;28;20063;-77
2021/06/08 09:15:48;;;;;;;9.18;7.35;;;;;;;23.22;65.42;101037.56;5071609;28;20513;-76
2021/06/08 09:18:15;;;;;;;9.15;6.78;;;;;;;23.39;66.04;101045.91;5070631;28;20086;-76
2021/06/08 09:20:40;;;;;;;8.40;7.50;;;;;;;23.47;64.05;101040.19;5071145;28;20040;-76
2021/06/08 09:23:09;;;;;;;8.55;6.82;;;;;;;23.42;64.21;101042.72;5071797;28;20037;-76
2021/06/08 09:25:34;;;;;;;7.90;7.10;;;;;;;23.47;65.70;101040.19;5071142;28;20036;-77
2021/06/08 09:28:12;;;;;;;7.43;6.72;;;;;;;23.61;66.09;101040.88;5071242;28;20052;-76
2021/06/08 09:30:37;;;;;;;8.30;7.50;;;;;;;23.53;64.60;101039.28;5070799;28;20036;-76
2021/06/08 09:33:17;;;;;;;7.85;7.05;;;;;;;23.54;64.69;101037.41;5071511;28;20037;-76
2021/06/08 09:35:50;;;;;;;8.77;7.50;;;;;;;23.55;64.15;101036.38;5071344;28;20105;-77
2021/06/08 09:38:16;;;;;;;8.38;7.22;;;;;;;23.52;64.71;101037.63;5070923;28;20404;-77
2021/06/08 09:40:42;;;;;;;10.48;8.40;;;;;;;23.55;64.92;101039.09;5071759;28;20021;-78
2021/06/08 09:43:10;;;;;;;10.95;8.25;;;;;;;23.48;65.18;101041.03;5078349;28;20028;-77
2021/06/08 09:45:40;;;;;;;8.32;6.90;;;;;;;23.34;65.46;101039.53;5082969;28;20374;-77
2021/06/08 09:48:05;;;;;;;8.80;7.72;;;;;;;23.29;65.80;101037.50;5077459;28;20370;-77
2021/06/08 09:50:36;;;;;;;9.88;7.57;;;;;;;23.17;66.76;101044.66;5080704;28;20055;-77
2021/06/08 09:53:14;;;;;;;10.02;9.02;;;;;;;23.19;64.64;101038.00;5089454;28;20071;-76
2021/06/08 09:55:48;;;;;;;9.52;8.52;;;;;;;23.14;65.21;101045.94;5080542;28;20037;-76
2021/06/08 09:58:13;;;;;;;9.18;7.50;;;;;;;23.07;65.27;101037.91;5069994;28;20036;-76
2021/06/08 10:00:38;;;;;;;9.55;8.15;;;;;;;22.97;65.08;101042.94;5070549;28;20097;-77
2021/06/08 10:03:04;;;;;;;9.15;7.63;;;;;;;22.82;68.17;101047.84;5070950;28;20520;-77
2021/06/08 10:05:30;;;;;;;10.57;8.88;;;;;;;22.95;65.88;101044.22;5070525;28;20452;-76
2021/06/08 10:07:59;;;;;;;8.55;7.65;;;;;;;23.09;65.71;101037.69;5070101;28;20076;-75
2021/06/08 10:10:26;;;;;;;10.65;9.43;;;;;;;23.15;63.87;101050.28;5068509;28;20039;-76
2021/06/08 10:13:02;;;;;;;12.27;9.05;;;;;;;23.11;65.13;101047.19;5070560;28;20036;-76
2021/06/08 10:15:52;;;;;;;8.48;7.53;;;;;;;22.94;65.84;101045.28;5070519;28;20021;-76
2021/06/08 10:18:18;;;;;;;7.53;6.82;;;;;;;23.07;65.98;101046.00;5070140;28;20078;-75
2021/06/08 10:20:52;;;;;;;9.48;7.57;;;;;;;23.20;66.68;101039.66;5069058;28;20028;-76
2021/06/08 10:23:26;;;;;;;8.98;7.53;;;;;;;23.16;66.96;101043.00;5071097;28;20064;-76
2021/06/08 10:25:54;;;;;;;8.07;7.32;;;;;;;23.29;66.36;101046.41;5071088;28;20029;-76
2021/06/08 10:28:20;;;;;;;9.73;8.48;;;;;;;23.29;65.08;101051.00;5073551;28;20090;-76
2021/06/08 10:30:47;;;;;;;10.23;8.38;;;;;;;23.20;65.73;101045.06;5074333;28;20094;-76
2021/06/08 10:33:13;;;;;;;9.32;8.30;;;;;;;23.40;64.81;101038.63;5071106;28;20029;-76
2021/06/08 10:35:39;;;;;;;11.77;8.77;;;;;;;23.57;63.33;101044.25;5070727;28;20397;-76
2021/06/08 10:38:06;;;;;;;9.65;8.75;;;;;;;23.68;63.79;101038.09;5070214;28;20432;-75
2021/06/08 10:40:34;;;;;;;10.75;9.30;;;;;;;23.53;63.80;101039.28;5070222;28;20392;-76
2021/06/08 10:43:00;;;;;;;14.20;10.20;;;;;;;23.35;63.12;101036.59;5069428;28;20157;-76
2021/06/08 10:45:37;;;;;;;11.38;9.98;;;;;;;23.48;61.66;101039.16;5068495;28;20041;-76
2021/06/08 10:48:28;;;;;;;11.60;10.40;;;;;;;23.68;58.27;101040.78;5069738;28;20344;-76
2021/06/08 10:51:13;;;;;;;10.38;9.25;;;;;;;23.76;62.78;101039.69;5070008;28;20036;-76
2021/06/08 10:53:45;;;;;;;10.65;8.52;;;;;;;23.89;63.17;101032.25;5070245;28;20037;-76
2021/06/08 10:56:30;;;;;;;9.10;8.20;;;;;;;24.20;60.02;101032.25;5069345;28;20029;-76
2021/06/08 10:58:59;;;;;;;10.70;9.60;;;;;;;24.04;59.81;101039.13;5069944;28;20033;-75
2021/06/08 11:01:30;;;;;;;10.35;9.25;;;;;;;24.01;60.46;101039.59;5069594;28;20064;-76
2021/06/08 11:04:01;;;;;;;11.63;10.05;;;;;;;23.91;60.34;101032.03;5068544;28;20032;-75
2021/06/08 11:06:51;;;;;;;8.85;7.95;;;;;;;23.92;61.50;101033.66;5069576;28;20060;-75
2021/06/08 11:09:22;;;;;;;10.43;8.75;;;;;;;23.81;60.39;101029.88;5069693;28;20065;-76
2021/06/08 11:11:59;;;;;;;13.25;9.77;;;;;;;23.90;59.88;101028.47;5069652;28;20377;-75
2021/06/08 11:17:04;;;;;;;9.98;8.93;;;;;;;24.28;59.19;101024.63;5069532;28;20041;-75
2021/06/08 11:19:45;;;;;;;10.70;9.60;;;;;;;24.27;56.76;101023.00;5071039;28;20059;-75
2021/06/08 11:22:14;;;;;;;;;;;;;;;24.32;57.91;101014.19;5081365;28;20449;-76
2021/06/08 11:24:43;;;;;;;11.13;9.55;;;;;;;24.44;57.68;101019.63;5090122;28;19916;-75
2021/06/08 11:27:09;;;;;;;10.32;9.30;;;;;;;24.22;57.84;101025.56;5089493;28;20059;-75